Virgil, New York
Current Conditions -  °F | °C
As of 11:15 PM on Wednesday 17 Dec 2014 (Local Time) from KN03 Reporting Station
Light Snow Light Snow  
Wind Chill: 25°   Ceiling: 1400
Heat Index: 32°   Visibility: 7mi
Dew Point: 32°   Wind: 8mph
Humidity: 100%   Direction: 270°W
Pressure: 29.91"   Gusts: NA
Location:  42.5863°N, 76.1831°W
Report Text: KN03 180415Z AUTO 27007KT 218V308 7SM -SN BKN014 BKN021 OVC031 00/00 A2991 RMK AO2
Loading
Personal Weather Stations






























Interactive Weather Map New forecast layout! Learn more

10-Day Weather Forecast

Advertisements
Track Severe Weather on mobile